Time;durP1;ratioP1;P1;durP2;ratioP2;P2;SDS_P1;SDS_P2;PMS_P1;PMS_P2;Temp;Humidity;BMP_temperature;BMP_pressure;BME280_temperature;BME280_humidity;BME280_pressure;Samples;Min_cycle;Max_cycle;Signal;HPM_P1;HPM_P2
2021/04/19 00:00:35;;;;;;;15.47;13.87;;;9.50;81.40;10.70;100833.00;;;;4899425;29;21035;-78
2021/04/19 00:03:03;;;;;;;17.40;12.57;;;9.40;81.30;10.70;100831.00;;;;4916706;29;20453;-80
2021/04/19 00:05:31;;;;;;;14.07;12.17;;;9.40;81.50;10.70;100823.00;;;;4900391;29;20505;-77
2021/04/19 00:08:00;;;;;;;14.90;13.30;;;9.40;81.90;10.80;100834.00;;;;4907813;29;20462;-77
2021/04/19 00:10:28;;;;;;;14.43;12.70;;;9.50;82.50;10.70;100828.00;;;;4907458;29;20457;-77
2021/04/19 00:12:57;;;;;;;16.03;13.10;;;9.50;82.40;10.70;100830.00;;;;4912018;29;20466;-78
2021/04/19 00:15:24;;;;;;;17.00;12.73;;;9.50;82.30;10.70;100814.00;;;;4897313;29;20537;-80
2021/04/19 00:17:52;;;;;;;15.17;12.40;;;9.50;82.00;10.70;100796.00;;;;4916197;29;20481;-77
2021/04/19 00:20:20;;;;;;;16.57;13.17;;;9.50;82.30;10.70;100812.00;;;;4905948;29;20466;-79
2021/04/19 00:22:47;;;;;;;16.57;13.30;;;9.50;81.80;10.60;100819.00;;;;4897429;29;20525;-77
2021/04/19 00:25:16;;;;;;;15.40;13.87;;;9.40;81.90;10.50;100810.00;;;;4907168;29;20562;-78
2021/04/19 00:27:43;;;;;;;15.53;13.93;;;9.40;82.00;10.50;100800.00;;;;4908784;29;21051;-77
2021/04/19 00:30:13;;;;;;;16.77;14.23;;;9.30;82.40;10.40;100808.00;;;;4914856;29;20561;-77
2021/04/19 00:32:41;;;;;;;16.10;13.53;;;9.30;82.40;10.50;100825.00;;;;4914834;29;20458;-78
2021/04/19 00:35:10;;;;;;;15.93;14.10;;;9.30;82.60;10.50;100804.00;;;;4915499;29;20487;-78
2021/04/19 00:37:38;;;;;;;14.47;13.00;;;9.30;82.80;10.50;100796.00;;;;4907313;29;20564;-77
2021/04/19 00:40:09;;;;;;;15.43;13.60;;;9.30;82.60;10.50;100807.00;;;;4915330;29;21093;-79
2021/04/19 00:42:37;;;;;;;12.80;11.50;;;9.30;82.30;10.40;100810.00;;;;4907958;29;20571;-77
2021/04/19 00:45:07;;;;;;;18.10;13.20;;;9.30;82.20;10.40;100806.00;;;;4914682;29;20529;-78
2021/04/19 00:47:36;;;;;;;15.30;13.43;;;9.20;82.40;217.30;161162.00;;;;4908943;29;20462;-78
2021/04/19 00:50:05;;;;;;;15.57;13.27;;;9.20;82.70;10.40;100798.00;;;;4916871;29;20548;-80
2021/04/19 00:52:34;;;;;;;15.50;13.87;;;9.20;82.70;10.40;100798.00;;;;4916892;29;20457;-78
2021/04/19 00:55:01;;;;;;;13.60;11.83;;;9.20;82.80;10.40;100808.00;;;;4916210;29;20492;-78
2021/04/19 00:57:34;;;;;;;11.43;9.67;;;9.20;82.80;10.20;100783.00;;;;4929857;29;21037;-81
2021/04/19 01:00:03;;;;;;;13.13;11.20;;;9.10;82.30;10.10;100793.00;;;;4926954;29;20458;-78
2021/04/19 01:02:31;;;;;;;11.50;10.40;;;9.00;82.20;10.00;100783.00;;;;4905597;29;20458;-78
2021/04/19 01:05:00;;;;;;;15.13;10.63;;;9.00;82.40;10.10;100783.00;;;;4901426;29;21037;-81
2021/04/19 01:07:27;;;;;;;15.83;13.63;;;8.90;82.40;217.30;161049.00;;;;4932208;29;20812;-82
2021/04/19 01:09:55;;;;;;;12.47;11.23;;;8.90;82.30;10.10;100787.00;;;;4939325;29;20549;-81
2021/04/19 01:12:22;;;;;;;8.17;7.37;;;8.80;82.20;10.00;100785.00;;;;4936012;29;20505;-80
2021/04/19 01:14:50;;;;;;;11.13;9.00;;;8.80;82.50;10.00;100788.00;;;;4944736;29;20470;-82
2021/04/19 01:17:18;;;;;;;11.00;7.90;;;8.80;82.50;9.90;100779.00;;;;4921539;29;20461;-81
2021/04/19 01:19:46;;;;;;;8.20;7.40;;;8.80;82.50;9.80;100779.00;;;;4905292;29;20462;-77
2021/04/19 01:22:14;;;;;;;8.20;7.40;;;8.80;82.30;9.80;100778.00;;;;4931488;29;20446;-78
2021/04/19 01:24:43;;;;;;;7.90;7.10;;;8.80;82.00;9.80;100785.00;;;;4948900;29;20477;-78
2021/04/19 01:27:11;;;;;;;7.33;6.43;;;8.80;81.90;9.80;100775.00;;;;4936002;29;20466;-77
2021/04/19 01:29:39;;;;;;;9.07;7.50;;;8.70;81.50;9.70;100774.00;;;;4920748;29;20492;-78
2021/04/19 01:32:08;;;;;;;9.27;7.13;;;8.70;81.60;9.70;100795.00;;;;4923959;29;20862;-77
2021/04/19 01:34:37;;;;;;;8.87;7.40;;;8.70;81.80;9.70;100786.00;;;;4906830;29;20481;-77
2021/04/19 01:37:07;;;;;;;8.53;7.73;;;8.70;82.30;9.70;100782.00;;;;4914001;29;20484;-79
2021/04/19 01:39:36;;;;;;;7.87;7.07;;;8.70;82.20;9.80;100775.00;;;;4905843;29;20845;-77
2021/04/19 01:42:08;;;;;;;8.50;7.40;;;8.70;82.30;9.80;100780.00;;;;4917775;29;20904;-79
2021/04/19 01:44:38;;;;;;;8.50;7.57;;;8.70;82.00;9.80;100788.00;;;;4903777;29;20477;-77
2021/04/19 01:47:06;;;;;;;8.50;7.60;;;8.70;82.10;9.80;100797.00;;;;4904088;29;20604;-79
2021/04/19 01:49:36;;;;;;;9.30;8.27;;;8.70;82.30;9.90;100784.00;;;;4901982;29;20496;-78
2021/04/19 01:52:05;;;;;;;8.40;7.60;;;8.70;82.60;9.90;100788.00;;;;4902248;29;20466;-77
2021/04/19 01:54:33;;;;;;;8.37;7.57;;;8.80;82.60;9.80;100785.00;;;;4922704;29;20568;-78
2021/04/19 01:57:01;;;;;;;8.77;7.20;;;8.80;82.60;9.80;100790.00;;;;4901963;29;20468;-80
2021/04/19 01:59:30;;;;;;;8.53;7.73;;;8.70;82.30;9.80;100798.00;;;;4911304;29;20468;-78
2021/04/19 02:02:09;;;;;;;8.47;7.60;;;8.70;82.20;9.80;100802.00;;;;4902751;29;21397;-79
2021/04/19 02:04:47;;;;;;;8.20;7.10;;;8.70;82.10;9.90;100791.00;;;;4920334;29;20565;-79
2021/04/19 02:07:26;;;;;;;7.97;7.17;;;8.70;82.00;9.80;100793.00;;;;4912336;29;20488;-78
2021/04/19 02:10:01;;;;;;;9.43;7.60;;;8.80;81.20;9.80;100797.00;;;;4905720;29;20517;-78
2021/04/19 02:12:44;;;;;;;8.67;7.77;;;8.70;81.20;9.80;100785.00;;;;4906300;29;20572;-77
2021/04/19 02:15:18;;;;;;;8.80;7.90;;;8.80;81.20;9.80;100776.00;;;;4908452;29;20516;-77
2021/04/19 02:18:02;;;;;;;8.83;7.80;;;8.70;81.00;9.90;68445.00;;;;4924277;29;20457;-81
2021/04/19 02:20:39;;;;;;;9.80;8.60;;;8.70;81.10;9.90;100774.00;;;;4928767;29;20466;-81
2021/04/19 02:23:16;;;;;;;10.50;9.40;;;8.70;81.10;9.80;100787.00;;;;4935041;29;20474;-79
2021/04/19 02:25:46;;;;;;;10.17;8.97;;;8.70;80.80;9.80;100782.00;;;;4911980;29;20479;-79
2021/04/19 02:28:23;;;;;;;10.27;9.17;;;8.70;81.30;9.80;100773.00;;;;4908338;29;21445;-82
2021/04/19 02:30:59;;;;;;;11.30;10.00;;;8.70;81.20;9.80;100770.00;;;;4942281;29;20438;-82
2021/04/19 02:33:32;;;;;;;11.20;9.70;;;8.80;81.40;9.90;100784.00;;;;4926678;29;20466;-83
2021/04/19 02:36:00;;;;;;;11.47;10.27;;;8.80;81.40;9.80;100777.00;;;;4915503;29;20456;-79
2021/04/19 02:38:31;;;;;;;13.73;12.07;;;8.80;81.20;9.80;100781.00;;;;4919142;29;20497;-80
2021/04/19 02:41:06;;;;;;;15.27;13.00;;;8.80;81.00;9.70;100786.00;;;;4921518;29;20461;-80
2021/04/19 02:43:38;;;;;;;15.13;12.90;;;8.80;81.10;9.70;100777.00;;;;4929783;29;20459;-79
2021/04/19 02:46:08;;;;;;;16.07;14.37;;;8.60;81.60;9.70;100781.00;;;;4923698;29;20454;-79
2021/04/19 02:48:36;;;;;;;15.40;13.77;;;8.70;81.90;9.70;100769.00;;;;4907123;29;20477;-78
2021/04/19 02:51:21;;;;;;;16.63;13.60;;;8.70;82.30;9.80;100786.00;;;;4923640;29;20545;-78
2021/04/19 02:53:50;;;;;;;16.13;13.80;;;8.70;82.60;9.80;100788.00;;;;4924834;29;20490;-81
2021/04/19 02:56:17;;;;;;;20.37;15.47;;;8.70;82.50;9.80;100773.00;;;;4922925;29;21027;-78
2021/04/19 02:58:49;;;;;;;18.00;15.77;;;8.60;82.40;9.80;68429.00;;;;4930279;29;20513;-82
2021/04/19 03:01:25;;;;;;;18.73;15.10;;;8.60;82.90;9.70;100775.00;;;;4920799;29;20453;-78
2021/04/19 03:04:02;;;;;;;20.27;17.13;;;8.60;82.80;9.70;100772.00;;;;4937790;29;20482;-81
2021/04/19 03:06:31;;;;;;;18.60;15.93;;;8.60;82.70;9.70;100769.00;;;;4932355;29;20457;-80
2021/04/19 03:09:06;;;;;;;20.50;16.60;;;8.60;83.00;9.70;100780.00;;;;4920475;29;20482;-79
2021/04/19 03:11:41;;;;;;;20.90;16.47;;;8.60;82.80;9.60;100765.00;;;;4927033;29;20458;-79
2021/04/19 03:14:13;;;;;;;19.70;16.70;;;8.50;82.80;9.60;100766.00;;;;4925872;29;20480;-79
2021/04/19 03:16:57;;;;;;;20.97;17.40;;;8.50;83.20;9.50;100766.00;;;;4927177;29;20815;-79
2021/04/19 03:19:51;;;;;;;23.00;17.60;;;8.40;83.20;9.50;100769.00;;;;4925528;29;20449;-80
2021/04/19 03:22:22;;;;;;;19.30;17.10;;;8.40;83.30;9.50;100763.00;;;;4923626;29;20536;-80
2021/04/19 03:24:52;;;;;;;24.80;18.37;;;8.40;83.60;9.50;100783.00;;;;4922755;29;20495;-80
2021/04/19 03:27:31;;;;;;;22.90;18.23;;;8.40;83.80;9.60;100774.00;;;;4932122;29;20539;-78
2021/04/19 03:30:09;;;;;;;21.63;18.10;;;8.50;83.90;9.60;100768.00;;;;4918093;29;20507;-80
2021/04/19 03:32:50;;;;;;;24.60;18.97;;;8.50;83.80;9.60;68396.00;;;;4909281;29;20494;-79
2021/04/19 03:35:26;;;;;;;22.90;18.93;;;8.50;83.80;9.70;100765.00;;;;4925780;29;20492;-80
2021/04/19 03:37:56;;;;;;;25.37;21.40;;;8.50;83.90;9.70;100766.00;;;;4918609;29;20453;-79
2021/04/19 03:40:28;;;;;;;21.70;18.17;;;8.60;83.90;9.70;100776.00;;;;4902587;29;20553;-80
2021/04/19 03:43:08;;;;;;;22.60;19.77;;;8.60;84.00;9.70;100769.00;;;;4918745;29;21343;-80
2021/04/19 03:45:40;;;;;;;23.30;19.53;;;8.60;83.70;9.70;100762.00;;;;4911153;29;20481;-80
2021/04/19 03:48:29;;;;;;;20.80;18.30;;;8.60;83.50;9.70;100769.00;;;;4911470;29;20569;-80
2021/04/19 03:51:09;;;;;;;24.37;19.27;;;8.60;83.50;9.70;100761.00;;;;4917553;29;20469;-80
2021/04/19 03:53:46;;;;;;;25.83;20.47;;;8.60;83.60;9.70;100768.00;;;;4911317;29;20457;-80
2021/04/19 03:56:17;;;;;;;24.07;19.50;;;8.70;83.80;9.70;100771.00;;;;4900733;29;20485;-80
2021/04/19 03:58:58;;;;;;;26.70;20.53;;;8.70;83.50;9.80;100772.00;;;;4903432;29;20473;-80
2021/04/19 04:01:33;;;;;;;27.00;20.93;;;8.70;83.60;9.80;100768.00;;;;4917214;29;20532;-80
2021/04/19 04:04:01;;;;;;;25.70;20.40;;;8.70;83.50;217.30;160906.00;;;;4918837;29;20481;-81
2021/04/19 04:06:45;;;;;;;23.30;20.33;;;8.80;83.40;9.80;100770.00;;;;4912143;29;20568;-81
2021/04/19 04:09:16;;;;;;;27.23;21.87;;;8.70;83.50;9.80;68426.00;;;;4907833;29;20580;-81
2021/04/19 04:11:45;;;;;;;28.93;20.90;;;8.60;83.40;217.30;160859.00;;;;4900296;29;20463;-81
2021/04/19 04:14:24;;;;;;;30.57;22.80;;;8.60;83.50;9.70;100766.00;;;;4898942;29;20560;-81
2021/04/19 04:16:53;;;;;;;29.37;23.07;;;8.70;84.10;9.60;100751.00;;;;4910021;29;20486;-81
2021/04/19 04:19:30;;;;;;;29.03;23.17;;;8.50;83.80;9.50;100756.00;;;;4901641;29;20513;-78
2021/04/19 04:22:10;;;;;;;29.77;23.80;;;8.50;84.20;9.40;100772.00;;;;4918119;29;20797;-81
2021/04/19 04:24:43;;;;;;;30.43;22.00;;;8.30;83.90;9.30;100765.00;;;;4919993;29;20569;-80
2021/04/19 04:27:13;;;;;;;31.03;23.30;;;8.20;83.80;9.20;100766.00;;;;4918413;29;20454;-81
2021/04/19 04:29:43;;;;;;;28.30;21.60;;;8.10;84.20;9.10;100770.00;;;;4909615;29;20482;-81
2021/04/19 04:32:26;;;;;;;31.77;23.00;;;8.00;84.20;9.00;100769.00;;;;4902067;29;20489;-81
2021/04/19 04:35:07;;;;;;;34.40;24.17;;;7.90;84.10;217.30;160507.00;;;;4902594;29;21511;-81
2021/04/19 04:37:38;;;;;;;36.80;23.40;;;7.90;84.40;8.80;100784.00;;;;4918066;29;20517;-81
2021/04/19 04:40:16;;;;;;;35.40;23.57;;;7.80;84.40;8.80;100765.00;;;;4907317;29;20481;-82
2021/04/19 04:42:48;;;;;;;32.40;23.60;;;7.70;84.50;8.90;68215.00;;;;4901800;29;20538;-81
2021/04/19 04:45:16;;;;;;;39.07;27.20;;;7.70;84.60;8.80;100780.00;;;;4918985;29;20477;-82
2021/04/19 04:47:53;;;;;;;35.87;24.83;;;7.70;84.40;8.90;68228.00;;;;4900389;29;21010;-83
2021/04/19 04:50:26;;;;;;;36.20;23.30;;;7.70;84.70;8.90;100778.00;;;;4917422;29;20478;-82
2021/04/19 04:53:01;;;;;;;32.33;21.73;;;7.70;84.70;8.90;100771.00;;;;4919088;29;20455;-82
2021/04/19 04:55:30;;;;;;;33.60;24.17;;;7.70;84.50;8.90;100779.00;;;;4922882;29;20484;-82
2021/04/19 04:57:59;;;;;;;34.37;24.70;;;7.70;84.40;8.90;100778.00;;;;4926070;29;20479;-82
2021/04/19 05:00:27;;;;;;;31.20;22.43;;;7.70;84.20;217.30;160503.00;;;;4912442;29;20963;-81
2021/04/19 05:02:58;;;;;;;33.60;22.67;;;7.60;83.80;8.80;100778.00;;;;4905610;29;20462;-81
2021/04/19 05:05:26;;;;;;;31.93;21.97;;;7.60;83.80;8.80;100780.00;;;;4905652;29;20502;-81
2021/04/19 05:07:54;;;;;;;32.17;22.10;;;7.60;83.70;8.80;100779.00;;;;4920984;29;20931;-80
2021/04/19 05:10:22;;;;;;;35.17;23.57;;;7.60;83.60;8.80;100773.00;;;;4925674;29;20481;-82
2021/04/19 05:12:50;;;;;;;34.50;22.93;;;7.60;83.50;8.80;100773.00;;;;4907923;29;20462;-81
2021/04/19 05:15:17;;;;;;;30.50;21.93;;;7.60;83.20;8.80;100775.00;;;;4907584;29;20481;-80
2021/04/19 05:17:45;;;;;;;31.03;21.53;;;7.60;83.20;217.30;160452.00;;;;4906518;29;20457;-81
2021/04/19 05:20:16;;;;;;;34.57;24.10;;;7.60;83.20;8.80;100783.00;;;;4914944;29;20952;-81
2021/04/19 05:22:44;;;;;;;34.37;22.70;;;7.70;83.70;8.90;68231.00;;;;4915221;29;20450;-81
2021/04/19 05:25:13;;;;;;;34.40;22.43;;;7.70;82.90;9.00;100770.00;;;;4907848;29;20513;-82
2021/04/19 05:27:41;;;;;;;31.77;21.13;;;7.70;82.90;9.00;100772.00;;;;4925727;29;20498;-82
2021/04/19 05:30:10;;;;;;;31.73;22.20;;;7.80;82.40;9.10;68269.00;;;;4914823;29;20989;-82
2021/04/19 05:32:38;;;;;;;24.57;17.90;;;7.90;81.90;9.10;100770.00;;;;4904198;29;20474;-82
2021/04/19 05:35:07;;;;;;;25.80;18.33;;;8.00;81.30;9.20;100781.00;;;;4922647;28;20501;-81
2021/04/19 05:37:36;;;;;;;27.53;21.13;;;8.00;80.80;217.30;160668.00;;;;4926267;29;20449;-81
2021/04/19 05:40:05;;;;;;;28.80;19.53;;;8.10;80.30;9.30;100780.00;;;;4917430;29;20473;-82
2021/04/19 05:42:33;;;;;;;31.10;20.97;;;8.20;80.40;9.30;100790.00;;;;4928130;29;20457;-82
2021/04/19 05:45:00;;;;;;;25.60;19.40;;;8.30;79.60;9.40;100795.00;;;;4927220;29;20566;-81
2021/04/19 05:47:28;;;;;;;33.17;20.80;;;8.30;79.20;9.50;100802.00;;;;4909392;29;20450;-81
2021/04/19 05:49:56;;;;;;;27.30;19.17;;;8.40;79.10;9.70;100790.00;;;;4918460;29;20485;-80
2021/04/19 05:52:24;;;;;;;29.00;19.93;;;8.30;78.90;9.70;68410.00;;;;4929108;29;20452;-82
2021/04/19 05:54:53;;;;;;;24.80;18.80;;;8.50;78.00;9.70;100803.00;;;;4930286;29;20509;-82
2021/04/19 05:57:34;;;;;;;25.40;19.10;;;8.50;77.10;9.80;100805.00;;;;4925858;29;20462;-82
2021/04/19 06:00:07;;;;;;;23.90;18.17;;;8.60;77.50;9.70;68418.00;;;;4921645;29;20521;-81
2021/04/19 06:02:50;;;;;;;23.70;17.87;;;8.60;76.70;9.70;100814.00;;;;4933480;29;20481;-81
2021/04/19 06:05:24;;;;;;;23.33;18.03;;;8.60;76.80;9.60;100813.00;;;;4930236;29;20486;-81
2021/04/19 06:08:02;;;;;;;22.13;17.00;;;8.50;76.60;9.50;100795.00;;;;4905313;29;20598;-80
2021/04/19 06:10:53;;;;;;;19.50;16.37;;;8.50;74.90;9.50;100810.00;;;;4938402;29;20512;-82
2021/04/19 06:13:31;;;;;;;20.50;17.17;;;8.50;75.40;9.50;100813.00;;;;4928048;29;20533;-81
2021/04/19 06:16:01;;;;;;;23.37;18.50;;;8.50;76.00;9.60;100814.00;;;;4932993;29;20485;-81
2021/04/19 06:18:32;;;;;;;21.53;17.90;;;8.50;76.40;9.90;100817.00;;;;4931311;29;21047;-82
2021/04/19 06:21:01;;;;;;;20.20;16.67;;;8.60;76.30;9.90;100819.00;;;;4918981;29;20450;-81
2021/04/19 06:23:30;;;;;;;18.33;14.47;;;8.70;75.50;9.70;100814.00;;;;4924898;29;20467;-81
2021/04/19 06:26:00;;;;;;;17.73;15.53;;;8.60;74.40;9.60;68386.00;;;;4914746;29;20481;-81
2021/04/19 06:28:30;;;;;;;20.47;15.03;;;8.50;75.00;9.50;100818.00;;;;4926831;29;20473;-81
2021/04/19 06:31:18;;;;;;;20.47;16.40;;;8.40;76.10;9.50;100814.00;;;;4907810;29;20469;-81
2021/04/19 06:34:05;;;;;;;18.70;15.80;;;8.40;75.60;9.40;100819.00;;;;4907543;29;20652;-81
2021/04/19 06:36:36;;;;;;;20.50;15.33;;;8.20;75.40;9.30;100828.00;;;;4925908;29;20521;-81
2021/04/19 06:39:07;;;;;;;19.47;15.63;;;8.20;75.50;9.40;68351.00;;;;4905079;29;20494;-81
2021/04/19 06:41:36;;;;;;;20.13;15.93;;;8.20;75.00;9.70;100827.00;;;;4911850;29;20554;-82
2021/04/19 06:44:05;;;;;;;17.87;15.00;;;8.30;75.00;217.30;160970.00;;;;4908614;29;20553;-80
2021/04/19 06:46:35;;;;;;;17.80;13.80;;;8.50;73.20;10.30;68533.00;;;;4912260;29;20528;-81
2021/04/19 06:49:04;;;;;;;22.63;15.33;;;8.70;71.10;10.40;68560.00;;;;4919833;29;20460;-81
2021/04/19 06:51:33;;;;;;;18.87;14.90;;;8.80;70.70;10.40;100607.00;;;;4912045;29;20457;-82
2021/04/19 06:54:04;;;;;;;18.50;14.80;;;8.80;69.10;10.50;100810.00;;;;4931014;29;20480;-82
2021/04/19 06:56:38;;;;;;;15.43;13.67;;;8.90;70.40;10.50;100821.00;;;;4909383;29;20454;-82
2021/04/19 06:59:08;;;;;;;20.97;13.57;;;9.00;69.50;10.60;68605.00;;;;4922926;29;21010;-82
2021/04/19 07:01:36;;;;;;;16.90;13.90;;;9.00;69.90;10.60;100812.00;;;;4924600;29;20465;-84
2021/04/19 07:04:08;;;;;;;17.80;14.40;;;9.00;69.80;52.70;161342.00;;;;4908594;29;20911;-81
2021/04/19 07:06:39;;;;;;;17.60;14.40;;;9.20;69.80;11.10;100822.00;;;;4917082;29;20482;-81
2021/04/19 07:09:19;;;;;;;15.40;13.50;;;9.30;69.00;11.00;100813.00;;;;4905256;29;20544;-81
2021/04/19 07:11:53;;;;;;;24.20;16.07;;;9.30;67.60;11.00;100815.00;;;;4917842;29;20458;-82
2021/04/19 07:14:21;;;;;;;19.23;14.20;;;9.40;68.40;11.20;100824.00;;;;4923309;29;20474;-83
2021/04/19 07:16:50;;;;;;;19.20;13.37;;;9.60;67.70;11.50;100821.00;;;;4909545;29;20461;-80
2021/04/19 07:19:19;;;;;;;15.03;13.43;;;9.80;66.10;11.60;100822.00;;;;4908446;29;20477;-80
2021/04/19 07:21:48;;;;;;;16.03;13.60;;;10.00;65.50;11.80;100820.00;;;;4906356;29;20488;-82
2021/04/19 07:24:16;;;;;;;21.07;14.40;;;10.10;65.00;11.60;100835.00;;;;4906292;29;20473;-80
2021/04/19 07:26:48;;;;;;;14.90;12.70;;;10.00;64.10;11.60;100821.00;;;;4923218;29;20455;-81
2021/04/19 07:29:19;;;;;;;19.47;12.90;;;10.00;65.90;217.30;161652.00;;;;4912375;29;20581;-80
2021/04/19 07:31:50;;;;;;;16.50;12.87;;;10.00;64.90;11.60;100827.00;;;;4930726;29;20466;-81
2021/04/19 07:34:20;;;;;;;16.40;12.50;;;10.00;63.90;11.60;100814.00;;;;4918746;29;20971;-81
2021/04/19 07:36:50;;;;;;;14.10;11.97;;;10.00;63.20;52.70;161686.00;;;;4908140;29;20466;-83
2021/04/19 07:39:20;;;;;;;15.03;11.90;;;10.00;63.20;11.60;68837.00;;;;4923708;29;20517;-83
2021/04/19 07:41:50;;;;;;;17.33;12.33;;;10.00;63.00;11.80;100811.00;;;;4910178;29;20542;-82
2021/04/19 07:44:41;;;;;;;15.30;12.60;;;10.10;64.00;12.00;100810.00;;;;4913558;29;20493;-82
2021/04/19 07:47:34;;;;;;;14.17;12.60;;;10.30;63.00;12.30;100809.00;;;;4917335;29;20454;-79
2021/04/19 07:50:16;;;;;;;13.70;12.10;;;10.50;63.00;12.50;100812.00;;;;4925213;29;20477;-81
2021/04/19 07:52:56;;;;;;;14.23;12.73;;;10.70;61.30;12.50;100813.00;;;;4919049;29;20552;-81
2021/04/19 07:55:26;;;;;;;14.07;12.57;;;10.80;60.00;12.70;100818.00;;;;4914365;29;20482;-82
2021/04/19 07:58:05;;;;;;;15.03;12.50;;;10.90;60.60;12.70;100805.00;;;;4921127;29;20467;-82
2021/04/19 08:00:36;;;;;;;12.97;11.23;;;10.90;60.00;12.40;100823.00;;;;4933473;29;20461;-82
2021/04/19 08:03:08;;;;;;;18.43;12.13;;;10.70;59.70;12.10;100812.00;;;;4925607;29;20438;-80
2021/04/19 08:05:40;;;;;;;15.03;12.50;;;10.60;60.30;12.10;68932.00;;;;4925423;29;21672;-83
2021/04/19 08:08:10;;;;;;;18.53;13.30;;;10.50;61.40;12.10;100816.00;;;;4924299;29;20457;-80
2021/04/19 08:10:41;;;;;;;15.60;11.80;;;10.50;62.50;217.30;161938.00;;;;4907256;29;20493;-81
2021/04/19 08:13:12;;;;;;;15.97;12.60;;;10.50;61.00;12.30;100810.00;;;;4907351;29;20466;-82
2021/04/19 08:15:43;;;;;;;14.70;12.37;;;10.60;62.00;12.40;100823.00;;;;4908261;29;20936;-82
2021/04/19 08:18:14;;;;;;;17.10;12.57;;;10.70;61.00;12.70;100816.00;;;;4909983;29;20469;-83
2021/04/19 08:20:53;;;;;;;16.00;12.03;;;10.80;60.00;13.00;100809.00;;;;4909690;29;20464;-82
2021/04/19 08:23:22;;;;;;;13.70;11.63;;;11.00;60.60;13.10;100818.00;;;;4919984;29;20825;-83
2021/04/19 08:25:52;;;;;;;16.30;11.90;;;11.20;59.90;13.20;100809.00;;;;4932696;29;20704;-82
2021/04/19 08:28:22;;;;;;;14.50;12.73;;;11.30;58.40;13.40;100819.00;;;;4938413;29;20451;-82
2021/04/19 08:30:52;;;;;;;15.20;11.43;;;11.50;57.90;13.70;69304.00;;;;4928404;29;20505;-81
2021/04/19 08:33:20;;;;;;;15.10;12.37;;;11.70;56.20;13.90;100801.00;;;;4930398;29;20508;-82
2021/04/19 08:35:50;;;;;;;14.37;12.13;;;11.90;55.80;217.30;162807.00;;;;4933722;29;20563;-83
2021/04/19 08:38:19;;;;;;;12.30;11.00;;;12.10;54.70;14.10;100800.00;;;;4946807;28;20473;-84
2021/04/19 08:40:50;;;;;;;13.07;11.77;;;12.10;52.20;14.10;100821.00;;;;4928936;29;20473;-84
2021/04/19 08:43:21;;;;;;;17.23;11.30;;;12.10;51.70;13.90;100813.00;;;;4947583;28;20439;-83
2021/04/19 08:45:51;;;;;;;11.43;10.23;;;12.10;50.70;13.90;100817.00;;;;4934419;28;20514;-83
2021/04/19 08:48:18;;;;;;;15.30;11.20;;;12.20;52.20;14.00;100817.00;;;;4932848;29;20530;-84
2021/04/19 08:50:52;;;;;;;11.60;10.40;;;12.40;53.10;14.30;100818.00;;;;4925215;29;20477;-83
2021/04/19 08:53:20;;;;;;;11.20;10.00;;;12.60;51.30;14.30;100816.00;;;;4934160;29;20469;-82
2021/04/19 08:55:52;;;;;;;12.37;10.27;;;12.70;49.60;14.30;100818.00;;;;4915793;29;20873;-80
2021/04/19 08:58:21;;;;;;;13.30;11.00;;;12.60;48.70;14.50;100817.00;;;;4926490;29;20847;-80
2021/04/19 09:00:51;;;;;;;11.17;9.87;;;12.70;49.40;14.50;100818.00;;;;4900333;29;20487;-80
2021/04/19 09:03:21;;;;;;;13.77;9.57;;;12.80;48.90;14.50;100800.00;;;;4933296;29;20446;-80
2021/04/19 09:05:49;;;;;;;12.87;10.77;;;12.90;47.30;217.30;162898.00;;;;4929691;29;20473;-81
2021/04/19 09:08:18;;;;;;;10.40;9.40;;;12.80;46.90;14.30;100804.00;;;;4912180;29;20459;-82
2021/04/19 09:10:56;;;;;;;11.30;9.90;;;12.70;47.00;14.20;100818.00;;;;4919714;29;20473;-80
2021/04/19 09:13:34;;;;;;;13.67;10.33;;;12.60;47.50;14.50;100807.00;;;;4928594;29;20501;-83
2021/04/19 09:16:21;;;;;;;11.40;9.37;;;12.80;47.20;15.00;69592.00;;;;4913728;29;20463;-79
2021/04/19 09:18:58;;;;;;;11.60;9.80;;;13.00;46.70;15.10;100810.00;;;;4929707;29;20477;-79
2021/04/19 09:21:36;;;;;;;9.70;8.70;;;13.20;45.00;15.40;100812.00;;;;4926909;29;20828;-80
2021/04/19 09:24:05;;;;;;;10.37;8.90;;;13.40;43.80;15.90;100804.00;;;;4914361;29;21003;-79
2021/04/19 09:26:52;;;;;;;11.70;10.00;;;13.70;42.20;15.90;100811.00;;;;4927797;29;20732;-79
2021/04/19 09:29:46;;;;;;;9.80;8.53;;;13.90;39.30;16.00;100813.00;;;;4926973;29;20454;-79
2021/04/19 09:32:26;;;;;;;9.93;8.73;;;13.90;39.40;15.60;69736.00;;;;4908024;29;20522;-80
2021/04/19 09:35:08;;;;;;;11.33;8.47;;;13.80;39.70;15.90;100812.00;;;;4936185;29;20481;-80
2021/04/19 09:37:57;;;;;;;10.57;9.10;;;14.00;38.80;16.10;100813.00;;;;4931753;29;20516;-79
2021/04/19 09:40:25;;;;;;;14.40;9.30;;;14.10;39.10;16.30;100824.00;;;;4936158;29;20460;-79
2021/04/19 09:43:09;;;;;;;9.07;7.63;;;14.20;38.50;16.30;100808.00;;;;4929454;29;20453;-80
2021/04/19 09:45:58;;;;;;;10.30;8.40;;;14.30;37.60;16.40;100797.00;;;;4945360;29;20480;-84
2021/04/19 09:49:02;;;;;;;8.17;7.47;;;14.30;34.80;16.60;100810.00;;;;4930735;29;20474;-80
2021/04/19 09:51:39;;;;;;;9.20;8.17;;;14.40;34.60;16.20;100812.00;;;;4945062;29;20474;-81
2021/04/19 09:54:10;;;;;;;10.33;8.60;;;14.40;35.90;16.60;100813.00;;;;4940176;29;20486;-80
2021/04/19 09:56:41;;;;;;;9.63;8.63;;;14.40;36.30;17.10;100805.00;;;;5066073;23;20493;-81
2021/04/19 09:59:15;;;;;;;15.17;9.33;;;14.80;35.00;17.60;100806.00;;;;4930182;29;20483;-80
2021/04/19 10:01:47;;;;;;;9.90;8.83;;;15.20;31.30;17.20;100803.00;;;;4916724;29;20435;-81
2021/04/19 10:04:16;;;;;;;8.93;7.90;;;15.10;30.20;17.20;100802.00;;;;4926587;29;20533;-81
2021/04/19 10:06:46;;;;;;;9.60;8.60;;;15.00;31.30;16.80;100802.00;;;;4938862;29;20919;-80
2021/04/19 10:09:16;;;;;;;9.40;8.30;;;14.70;32.20;16.70;100813.00;;;;4923149;29;20530;-79
2021/04/19 10:11:46;;;;;;;9.40;8.37;;;14.60;34.80;16.80;100797.00;;;;4920774;29;20580;-80
2021/04/19 10:14:16;;;;;;;12.37;8.60;;;14.60;34.80;16.90;100808.00;;;;4926306;29;20514;-80
2021/04/19 10:16:46;;;;;;;10.17;8.87;;;14.70;33.80;16.90;100670.00;;;;4925171;29;20454;-80
2021/04/19 10:19:26;;;;;;;10.00;9.00;;;14.70;34.40;16.90;100801.00;;;;4921453;29;21042;-79
2021/04/19 10:22:04;;;;;;;10.10;8.40;;;14.80;31.70;17.10;100798.00;;;;4923757;29;20454;-80
2021/04/19 10:24:33;;;;;;;7.90;7.10;;;14.90;32.60;17.00;100805.00;;;;4935561;29;20493;-79
2021/04/19 10:27:01;;;;;;;8.43;7.53;;;14.90;27.80;16.90;100793.00;;;;4926922;29;20490;-80
2021/04/19 10:29:29;;;;;;;9.90;8.07;;;15.00;26.80;16.70;100799.00;;;;4913815;29;20482;-79
2021/04/19 10:31:59;;;;;;;8.47;7.67;;;14.90;27.10;17.20;100793.00;;;;4924564;29;20446;-80
2021/04/19 10:34:31;;;;;;;9.63;8.67;;;15.00;25.30;17.60;100799.00;;;;4924698;29;20478;-81
2021/04/19 10:37:00;;;;;;;9.17;8.27;;;15.20;25.80;17.90;100797.00;;;;4937122;29;20458;-79
2021/04/19 10:39:33;;;;;;;9.17;7.40;;;15.30;25.40;18.10;100800.00;;;;4929031;29;20482;-81
2021/04/19 10:42:04;;;;;;;8.17;7.37;;;15.30;25.20;17.60;100796.00;;;;4911985;29;20493;-80
2021/04/19 10:44:35;;;;;;;9.20;8.10;;;15.30;24.20;17.90;100786.00;;;;4920334;29;20481;-79
2021/04/19 10:47:06;;;;;;;8.10;7.37;;;15.50;23.90;18.50;100797.00;;;;4919718;29;20493;-80
2021/04/19 10:49:35;;;;;;;8.17;7.37;;;15.80;23.30;18.80;100792.00;;;;4917840;29;20549;-81
2021/04/19 10:52:06;;;;;;;9.37;8.13;;;16.10;21.50;18.90;100779.00;;;;4918156;29;20464;-80
2021/04/19 10:54:37;;;;;;;8.03;7.23;;;16.40;18.00;19.30;100781.00;;;;4910677;29;20637;-79
2021/04/19 10:57:07;;;;;;;10.10;8.40;;;16.50;19.80;19.40;100784.00;;;;4908011;29;20478;-79
2021/04/19 10:59:36;;;;;;;8.90;8.10;;;16.60;17.70;19.20;100782.00;;;;4932595;29;20553;-79
2021/04/19 11:02:06;;;;;;;11.03;9.23;;;16.70;16.20;19.20;100779.00;;;;4919791;29;20459;-79
2021/04/19 11:04:38;;;;;;;8.20;7.33;;;16.50;15.10;19.40;100778.00;;;;4943561;29;20532;-82
2021/04/19 11:07:27;;;;;;;9.07;8.17;;;16.60;15.40;19.50;100783.00;;;;4929305;29;20455;-81